Flight Track Log - Related Links

Times and Time Zones

All times are in EDT time to prevent confusion due to time zone crossing. See the CTL14 flight status page for this flight to view local times or setup timezone preferences in your user account.

Time Position Orientation Groundspeed Altitude Reporting Facility
EDT Latitude Longitude Course Direction KTS MPH feet Rate Location/Type
Sat 12:30:44 AM 42.1667 -87.8333 71° East 180 207 2,000  Level Chicago TRACON
Sat 12:31:44 AM 42.1833 -87.7667 71° East 182 209 2,600 700 Climbing Chicago TRACON
Sat 12:32:44 AM 42.1667 -87.7000 109° East 156 180 3,400 682 Climbing Chicago TRACON
Sat 12:33:12 AM 42.1678 -87.6908 81° East 166 191 3,600 682 Climbing Chicago Center
Sat 12:34:12 AM 42.1489 -87.6408 117° Southeast 157 181 4,400 744 Climbing Chicago Center
Sat 12:35:13 AM 42.1289 -87.5928 119° Southeast 152 175 5,100 727 Climbing Chicago Center
Sat 12:35:51 AM 42.1167 -87.5500 111° Southeast 149 171 5,600 652 Climbing Chicago TRACON
Sat 12:36:45 AM 42.1000 -87.5000 114° Southeast 153 176 6,100 500 Climbing Chicago TRACON
Sat 12:37:39 AM 42.0667 -87.4667 143° Southeast 156 180 6,500 556 Climbing Chicago TRACON
Sat 12:38:33 AM 42.0500 -87.4167 114° Southeast 153 176 7,100 526 Climbing Chicago TRACON
Sat 12:39:33 AM 42.0333 -87.3667 114° Southeast 153 176 7,500 412 Climbing Chicago TRACON
Sat 12:40:15 AM 42.0183 -87.3367 124° Southeast 154 177 7,800 412 Climbing Chicago Center
Sat 12:41:15 AM 41.9981 -87.2886 120° Southeast 150 173 8,200 400 Climbing Chicago Center
Sat 12:42:15 AM 41.9767 -87.2383 120° Southeast 155 178 8,600 347 Climbing Chicago Center
Sat 12:43:16 AM 41.9550 -87.1911 122° Southeast 152 175 8,900 198 Climbing Chicago Center
Sat 12:44:16 AM 41.9333 -87.1400 120° Southeast 158 182 9,000  Climbing Chicago Center
Sat 12:45:16 AM 41.9086 -87.0850 121° Southeast 172 198 8,900 50 Descending Chicago Center
Sat 12:46:17 AM 41.8811 -87.0347 126° Southeast 169 194 9,100 99 Climbing Chicago Center
Sat 12:47:17 AM 41.8556 -86.9814 123° Southeast 171 197 9,100  Level Chicago Center
Sat 12:48:17 AM 41.8292 -86.9289 124° Southeast 172 198 9,100  Level Chicago Center
Sat 12:49:17 AM 41.8047 -86.8742 121° Southeast 173 199 9,100  Level Chicago Center
Sat 12:50:18 AM 41.7797 -86.8200 122° Southeast 173 199 9,100  Level Chicago Center
Sat 12:51:18 AM 41.7525 -86.7661 124° Southeast 176 203 9,100 -100 Level Chicago Center
Sat 12:52:18 AM 41.7278 -86.7108 121° Southeast 175 201 8,900 -50 Descending Chicago Center
Sat 12:53:19 AM 41.7019 -86.6553 122° Southeast 177 204 9,000 50 Climbing Chicago Center
Sat 12:54:19 AM 41.6764 -86.6036 124° Southeast 174 200 9,000  Level Chicago Center
Sat 12:55:19 AM 41.6528 -86.5492 120° Southeast 169 194 9,000  Level Chicago Center
Sat 12:56:19 AM 41.6269 -86.4936 122° Southeast 176 203 9,000  Level Chicago Center
Sat 12:57:20 AM 41.6011 -86.4417 124° Southeast 170 196 9,000 50 Level Chicago Center
Sat 12:58:20 AM 41.5775 -86.3867 120° Southeast 170 196 9,100  Climbing Chicago Center
Sat 12:59:20 AM 41.5497 -86.3328 125° Southeast 174 200 9,000  Descending Chicago Center
Sat 01:00:20 AM 41.5253 -86.2794 121° Southeast 172 198 9,100  Climbing Chicago Center
Sat 01:01:21 AM 41.5000 -86.2247 122° Southeast 173 199 9,000 -50 Descending Chicago Center
Sat 01:02:21 AM 41.4750 -86.1694 121° Southeast 174 200 9,000 50 Level Chicago Center
Sat 01:03:21 AM 41.4500 -86.1158 122° Southeast 173 199 9,100  Climbing Chicago Center
Sat 01:04:21 AM 41.4253 -86.0606 121° Southeast 172 198 9,000 -50 Descending Chicago Center
Sat 01:05:22 AM 41.4014 -86.0058 120° Southeast 173 199 9,000 50 Level Chicago Center
Sat 01:06:22 AM 41.3756 -85.9506 122° Southeast 175 201 9,100  Climbing Chicago Center
Sat 01:07:22 AM 41.3456 -85.8867 122° Southeast 172 198 9,000 -50 Descending Chicago Center
Sat 01:08:22 AM 41.3214 -85.8322 121° Southeast 172 198 9,000  Level Chicago Center
Sat 01:09:22 AM 41.2958 -85.7778 122° Southeast 174 200 9,000  Level Chicago Center
Sat 01:10:22 AM 41.2714 -85.7244 121° Southeast 171 197 9,000  Level Chicago Center
Sat 01:11:23 AM 41.2475 -85.6722 121° Southeast 168 193 9,000 50 Level Chicago Center
Sat 01:12:23 AM 41.2208 -85.6211 125° Southeast 168 193 9,100 50 Climbing Chicago Center
Sat 01:13:23 AM 41.1969 -85.5667 120° Southeast 171 197 9,100 -50 Level Chicago Center
Sat 01:14:23 AM 41.1725 -85.5128 121° Southeast 171 197 9,000 -50 Descending Chicago Center
Sat 01:15:23 AM 41.1489 -85.4589 120° Southeast 171 197 9,000  Level Chicago Center
Sat 01:16:23 AM 41.1242 -85.4056 122° Southeast 170 196 9,000  Level Chicago Center
Sat 01:17:24 AM 41.0997 -85.3522 121° Southeast 171 197 9,000  Level Chicago Center
Sat 01:18:24 AM 41.0761 -85.2972 120° Southeast 171 197 9,000  Level Chicago Center
Sat 01:19:24 AM 41.0511 -85.2453 123° Southeast 170 196 9,000  Level Chicago Center
Sat 01:20:24 AM 41.0272 -85.1906 120° Southeast 171 197 9,000 50 Level Chicago Center
Sat 01:21:24 AM 41.0036 -85.1364 120° Southeast 170 196 9,100  Climbing Chicago Center
Sat 01:22:24 AM 40.9786 -85.0814 121° Southeast 173 199 9,000 -50 Descending Chicago Center
Sat 01:23:24 AM 40.9528 -85.0286 123° Southeast 174 200 9,000  Level Chicago Center
Sat 01:24:25 AM 40.9286 -84.9756 121° Southeast 170 196 9,000  Level Chicago Center
Sat 01:25:25 AM 40.9039 -84.9228 122° Southeast 170 196 9,000  Level Chicago Center
Sat 01:26:25 AM 40.8789 -84.8672 121° Southeast 173 199 9,000  Level Chicago Center
Sat 01:27:25 AM 40.8519 -84.8175 126° Southeast 169 194 9,000  Level Chicago Center
Sat 01:28:25 AM 40.8278 -84.7636 121° Southeast 169 194 9,000  Level Chicago Center
Sat 01:29:25 AM 40.8050 -84.7078 118° Southeast 172 198 9,000  Level Chicago Center
Sat 01:30:25 AM 40.7808 -84.6519 120° Southeast 174 200 9,000  Level Chicago Center
Sat 01:31:25 AM 40.7533 -84.6017 126° Southeast 172 198 9,000  Level Chicago Center
Sat 01:32:26 AM 40.7297 -84.5472 120° Southeast 171 197 9,000  Level Chicago Center
Sat 01:33:26 AM 40.7069 -84.4942 120° Southeast 169 194 9,000  Level Chicago Center
Sat 01:34:26 AM 40.6825 -84.4411 121° Southeast 169 194 9,000  Level Chicago Center
Sat 01:35:26 AM 40.6592 -84.3867 119° Southeast 170 196 9,000 64 Level Chicago Center
Sat 01:36:00 AM 40.6403 -84.3525 126° Southeast 168 193 9,100  Climbing Indianapolis Center
Sat 01:36:42 AM 40.6281 -84.3208 117° Southeast 170 196 9,000  Descending Indianapolis Center
Sat 01:37:00 AM 40.6172 -84.3000 124° Southeast 169 194 9,100 98 Climbing Indianapolis Center
Sat 01:37:43 AM 40.6067 -84.2647 112° Southeast 169 194 9,100  Level Indianapolis Center
Sat 01:38:01 AM 40.5964 -84.2422 121° Southeast 169 194 9,100 -100 Level Indianapolis Center
Sat 01:38:43 AM 40.5861 -84.2097 113° Southeast 167 192 9,000 -100 Descending Indianapolis Center
Sat 01:39:01 AM 40.5756 -84.1872 122° Southeast 170 196 9,000 -100 Level Indianapolis Center
Sat 01:39:43 AM 40.5614 -84.1539 119° Southeast 172 198 8,900 -295 Descending Indianapolis Center
Sat 01:40:02 AM 40.5506 -84.1344 126° Southeast 174 200 8,700 -400 Descending Indianapolis Center
Sat 01:40:43 AM 40.5353 -84.0969 118° Southeast 181 208 8,500 -393 Descending Indianapolis Center
Sat 01:41:03 AM 40.5236 -84.0758 126° Southeast 182 209 8,300 -400 Descending Indianapolis Center
Sat 01:41:43 AM 40.5097 -84.0381 116° Southeast 185 213 8,100 -400 Descending Indianapolis Center
Sat 01:42:03 AM 40.4967 -84.0147 126° Southeast 186 214 7,900 -400 Descending Indianapolis Center
Sat 01:42:43 AM 40.4836 -83.9789 116° Southeast 185 213 7,700 -393 Descending Indianapolis Center
Sat 01:43:04 AM 40.4722 -83.9539 121° Southeast 185 213 7,500 -393 Descending Indianapolis Center
Sat 01:43:44 AM 40.4581 -83.9194 118° Southeast 185 213 7,300 -400 Descending Indianapolis Center
Sat 01:44:04 AM 40.4472 -83.8958 121° Southeast 185 213 7,100 -400 Descending Indianapolis Center
Sat 01:44:44 AM 40.4319 -83.8608 120° Southeast 184 212 6,900 -393 Descending Indianapolis Center
Sat 01:45:05 AM 40.4203 -83.8375 123° Southeast 185 213 6,700 -400 Descending Indianapolis Center
Sat 01:45:44 AM 40.4069 -83.8008 116° Southeast 185 213 6,500 -393 Descending Indianapolis Center
Sat 01:46:06 AM 40.3953 -83.7794 126° Southeast 183 211 6,300 -500 Descending Indianapolis Center
Sat 01:46:44 AM 40.3803 -83.7431 118° Southeast 185 213 6,000 -500 Descending Indianapolis Center
Sat 01:47:06 AM 40.3703 -83.7214 121° Southeast 184 212 5,800 -393 Descending Indianapolis Center
Sat 01:47:45 AM 40.3556 -83.6858 119° Southeast 180 207 5,600 -295 Descending Indianapolis Center
Sat 01:48:07 AM 40.3431 -83.6633 126° Southeast 180 207 5,500 -400 Descending Indianapolis Center
Sat 01:48:45 AM 40.3286 -83.6297 119° Southeast 179 206 5,200 -500 Descending Indianapolis Center
Sat 01:49:07 AM 40.3178 -83.6081 123° Southeast 173 199 5,000 -400 Descending Indianapolis Center
Sat 01:49:45 AM 40.3042 -83.5756 119° Southeast 175 201 4,800 -393 Descending Indianapolis Center
Sat 01:50:08 AM 40.2944 -83.5561 123° Southeast 173 199 4,600 -400 Descending Indianapolis Center
Sat 01:50:45 AM 40.2797 -83.5211 119° Southeast 173 199 4,400 -393 Descending Indianapolis Center
Sat 01:51:09 AM 40.2711 -83.5011 119° Southeast 173 199 4,200 -400 Descending Indianapolis Center
Sat 01:51:45 AM 40.2550 -83.4650 120° Southeast 174 200 4,000 -400 Descending Indianapolis Center
Sat 01:52:09 AM 40.2439 -83.4431 124° Southeast 178 205 3,800 -295 Descending Indianapolis Center
Sat 01:52:46 AM 40.2336 -83.4172 118° Southeast 177 204 3,700 -162 Descending Indianapolis Center
Sat 01:54:00 AM 40.2037 -83.3541 122° Southeast  Level FlightAware Approximate
Sat 02:01:00 AM 40.0798 -83.0732 121° Southeast  Level Estimated
Sat 02:02:00 AM 40.0798 -83.0732 121° Southeast  Level Estimated
Sat 02:03:00 AM 40.0798 -83.0732 121° Southeast  Level Estimated

Login

Don't have an account? Register now (free) for customized features, flight alerts, and more!